sensor_id;sensor_type;location;lat;lon;timestamp;pressure;altitude;pressure_sealevel;temperature;humidity
10476;BME280;26166;48.264;11.436;2023-04-27T00:02:15;96243.19;;;12.11;53.03
10476;BME280;26166;48.264;11.436;2023-04-27T00:05:16;96241.56;;;12.10;52.90
10476;BME280;26166;48.264;11.436;2023-04-27T00:08:16;96249.44;;;12.10;52.96
10476;BME280;26166;48.264;11.436;2023-04-27T00:11:16;96246.81;;;12.10;53.33
10476;BME280;26166;48.264;11.436;2023-04-27T00:14:16;96242.72;;;12.07;53.12
10476;BME280;26166;48.264;11.436;2023-04-27T00:17:17;96239.91;;;12.09;52.97
10476;BME280;26166;48.264;11.436;2023-04-27T00:20:17;96237.28;;;12.09;52.97
10476;BME280;26166;48.264;11.436;2023-04-27T00:23:17;96232.19;;;12.07;53.02
10476;BME280;26166;48.264;11.436;2023-04-27T00:26:17;96237.28;;;12.09;52.87
10476;BME280;26166;48.264;11.436;2023-04-27T00:29:18;96236.28;;;12.10;53.31
10476;BME280;26166;48.264;11.436;2023-04-27T00:32:18;96240.06;;;12.07;53.16
10476;BME280;26166;48.264;11.436;2023-04-27T00:35:18;96242.72;;;12.07;53.33
10476;BME280;26166;48.264;11.436;2023-04-27T00:38:18;96236.00;;;12.05;53.28
10476;BME280;26166;48.264;11.436;2023-04-27T00:41:19;96228.72;;;12.07;53.27
10476;BME280;26166;48.264;11.436;2023-04-27T00:44:23;96228.72;;;12.07;53.12
10476;BME280;26166;48.264;11.436;2023-04-27T00:47:23;96227.91;;;12.06;53.31
10476;BME280;26166;48.264;11.436;2023-04-27T00:50:26;96235.00;;;12.06;53.34
10476;BME280;26166;48.264;11.436;2023-04-27T00:53:28;96226.63;;;12.02;53.51
10476;BME280;26166;48.264;11.436;2023-04-27T00:56:29;96242.25;;;12.04;53.66
10476;BME280;26166;48.264;11.436;2023-04-27T00:59:29;96232.56;;;12.04;53.52
10476;BME280;26166;48.264;11.436;2023-04-27T01:02:30;96234.34;;;12.04;53.32
10476;BME280;26166;48.264;11.436;2023-04-27T01:05:30;96232.72;;;12.03;53.28
10476;BME280;26166;48.264;11.436;2023-04-27T01:08:30;96232.06;;;12.01;53.50
10476;BME280;26166;48.264;11.436;2023-04-27T01:11:31;96233.09;;;12.00;53.46
10476;BME280;26166;48.264;11.436;2023-04-27T01:14:31;96238.34;;;12.00;53.49
10476;BME280;26166;48.264;11.436;2023-04-27T01:17:32;96242.59;;;12.01;53.74
10476;BME280;26166;48.264;11.436;2023-04-27T01:20:32;96238.97;;;12.02;53.38
10476;BME280;26166;48.264;11.436;2023-04-27T01:23:32;96240.50;;;11.96;53.66
10476;BME280;26166;48.264;11.436;2023-04-27T01:26:32;96235.88;;;11.98;53.23
10476;BME280;26166;48.264;11.436;2023-04-27T01:29:32;96238.03;;;11.95;53.57
10476;BME280;26166;48.264;11.436;2023-04-27T01:32:32;96243.13;;;11.96;53.54
10476;BME280;26166;48.264;11.436;2023-04-27T01:35:35;96243.28;;;11.95;53.66
10476;BME280;26166;48.264;11.436;2023-04-27T01:38:36;96229.16;;;11.96;53.42
10476;BME280;26166;48.264;11.436;2023-04-27T01:41:36;96240.50;;;11.96;53.51
10476;BME280;26166;48.264;11.436;2023-04-27T01:44:36;96245.28;;;11.93;53.48
10476;BME280;26166;48.264;11.436;2023-04-27T01:47:37;96243.66;;;11.92;54.00
10476;BME280;26166;48.264;11.436;2023-04-27T01:50:37;96240.03;;;11.93;53.53
10476;BME280;26166;48.264;11.436;2023-04-27T01:53:37;96240.03;;;11.93;53.49
10476;BME280;26166;48.264;11.436;2023-04-27T01:56:37;96245.94;;;11.95;53.65
10476;BME280;26166;48.264;11.436;2023-04-27T01:59:37;96244.47;;;11.92;53.79
10476;BME280;26166;48.264;11.436;2023-04-27T02:02:38;96243.66;;;11.92;53.76
10476;BME280;26166;48.264;11.436;2023-04-27T02:05:38;96250.56;;;11.93;53.54
10476;BME280;26166;48.264;11.436;2023-04-27T02:08:38;96253.19;;;11.93;53.75
10476;BME280;26166;48.264;11.436;2023-04-27T02:11:38;96247.63;;;11.88;53.86
10476;BME280;26166;48.264;11.436;2023-04-27T02:14:38;96246.34;;;11.83;54.05
10476;BME280;26166;48.264;11.436;2023-04-27T02:17:39;96247.63;;;11.88;53.88
10476;BME280;26166;48.264;11.436;2023-04-27T02:20:39;96249.28;;;11.89;53.55
10476;BME280;26166;48.264;11.436;2023-04-27T02:23:39;96244.00;;;11.89;53.61
10476;BME280;26166;48.264;11.436;2023-04-27T02:26:39;96253.53;;;11.90;53.60
10476;BME280;26166;48.264;11.436;2023-04-27T02:29:39;96244.81;;;11.89;53.71
10476;BME280;26166;48.264;11.436;2023-04-27T02:32:39;96248.44;;;11.88;53.53
10476;BME280;26166;48.264;11.436;2023-04-27T02:35:40;96249.09;;;11.90;53.24
10476;BME280;26166;48.264;11.436;2023-04-27T02:38:40;96254.72;;;11.87;53.61
10476;BME280;26166;48.264;11.436;2023-04-27T02:41:40;96248.44;;;11.88;53.40
10476;BME280;26166;48.264;11.436;2023-04-27T02:44:41;96251.28;;;11.86;53.10
10476;BME280;26166;48.264;11.436;2023-04-27T02:47:41;96252.25;;;11.85;53.23
10476;BME280;26166;48.264;11.436;2023-04-27T02:50:42;96253.25;;;11.84;53.37
10476;BME280;26166;48.264;11.436;2023-04-27T02:53:42;96253.06;;;11.86;53.05
10476;BME280;26166;48.264;11.436;2023-04-27T02:56:42;96250.41;;;11.86;53.17
10476;BME280;26166;48.264;11.436;2023-04-27T02:59:43;96255.88;;;11.84;53.22
10476;BME280;26166;48.264;11.436;2023-04-27T03:02:43;96246.66;;;11.80;53.05
10476;BME280;26166;48.264;11.436;2023-04-27T03:05:43;96249.97;;;11.82;52.76
10476;BME280;26166;48.264;11.436;2023-04-27T03:08:43;96250.78;;;11.83;53.05
10476;BME280;26166;48.264;11.436;2023-04-27T03:11:43;96257.50;;;11.85;52.54
10476;BME280;26166;48.264;11.436;2023-04-27T03:14:43;96256.88;;;11.83;52.76
10476;BME280;26166;48.264;11.436;2023-04-27T03:17:44;96266.41;;;11.76;52.86
10476;BME280;26166;48.264;11.436;2023-04-27T03:20:44;96260.16;;;11.77;52.91
10476;BME280;26166;48.264;11.436;2023-04-27T03:23:45;96267.63;;;11.66;52.49
10476;BME280;26166;48.264;11.436;2023-04-27T03:26:45;96275.13;;;11.46;52.83
10476;BME280;26166;48.264;11.436;2023-04-27T03:29:45;96273.50;;;11.45;53.03
10476;BME280;26166;48.264;11.436;2023-04-27T03:32:46;96266.72;;;11.50;52.75
10476;BME280;26166;48.264;11.436;2023-04-27T03:35:53;96279.34;;;11.55;52.69
10476;BME280;26166;48.264;11.436;2023-04-27T03:38:53;96274.09;;;11.55;52.71
10476;BME280;26166;48.264;11.436;2023-04-27T03:41:53;96274.56;;;11.58;52.70
10476;BME280;26166;48.264;11.436;2023-04-27T03:44:53;96281.94;;;11.63;52.35
10476;BME280;26166;48.264;11.436;2023-04-27T03:47:54;96271.41;;;11.63;52.21
10476;BME280;26166;48.264;11.436;2023-04-27T03:50:54;96274.72;;;11.65;52.11
10476;BME280;26166;48.264;11.436;2023-04-27T03:53:54;96272.25;;;11.63;52.27
10476;BME280;26166;48.264;11.436;2023-04-27T03:56:54;96284.56;;;11.63;52.48
10476;BME280;26166;48.264;11.436;2023-04-27T03:59:55;96284.56;;;11.63;52.12
10476;BME280;26166;48.264;11.436;2023-04-27T04:02:56;96293.28;;;11.63;52.22
10476;BME280;26166;48.264;11.436;2023-04-27T04:05:56;96297.59;;;11.65;52.11
10476;BME280;26166;48.264;11.436;2023-04-27T04:08:56;96297.72;;;11.63;52.10
10476;BME280;26166;48.264;11.436;2023-04-27T04:11:57;96293.94;;;11.66;52.17
10476;BME280;26166;48.264;11.436;2023-04-27T04:14:57;96303.00;;;11.63;52.18
10476;BME280;26166;48.264;11.436;2023-04-27T04:17:57;96303.81;;;11.63;52.30
10476;BME280;26166;48.264;11.436;2023-04-27T04:20:57;96315.34;;;11.62;52.32
10476;BME280;26166;48.264;11.436;2023-04-27T04:23:58;96315.03;;;11.57;52.53
10476;BME280;26166;48.264;11.436;2023-04-27T04:26:58;96313.88;;;11.60;52.44
10476;BME280;26166;48.264;11.436;2023-04-27T04:29:59;96323.03;;;11.64;52.16
10476;BME280;26166;48.264;11.436;2023-04-27T04:32:59;96316.38;;;11.45;52.42
10476;BME280;26166;48.264;11.436;2023-04-27T04:36:02;96330.38;;;11.37;52.88
10476;BME280;26166;48.264;11.436;2023-04-27T04:39:02;96326.78;;;11.39;53.09
10476;BME280;26166;48.264;11.436;2023-04-27T04:42:04;96326.44;;;11.42;53.03
10476;BME280;26166;48.264;11.436;2023-04-27T04:45:04;96326.44;;;11.42;52.85
10476;BME280;26166;48.264;11.436;2023-04-27T04:48:06;96325.09;;;11.46;52.61
10476;BME280;26166;48.264;11.436;2023-04-27T04:51:06;96318.88;;;11.47;52.86
10476;BME280;26166;48.264;11.436;2023-04-27T04:54:06;96328.41;;;11.48;52.98
10476;BME280;26166;48.264;11.436;2023-04-27T04:57:06;96330.03;;;11.49;52.93
10476;BME280;26166;48.264;11.436;2023-04-27T05:00:06;96340.22;;;11.52;52.70
10476;BME280;26166;48.264;11.436;2023-04-27T05:03:11;96330.50;;;11.52;52.89
10476;BME280;26166;48.264;11.436;2023-04-27T05:06:11;96334.13;;;11.51;53.09
10476;BME280;26166;48.264;11.436;2023-04-27T05:09:11;96335.59;;;11.54;53.00
10476;BME280;26166;48.264;11.436;2023-04-27T05:12:12;96340.84;;;11.54;53.22
10476;BME280;26166;48.264;11.436;2023-04-27T05:15:12;96341.66;;;11.54;53.03
10476;BME280;26166;48.264;11.436;2023-04-27T05:18:12;96341.66;;;11.54;53.32
10476;BME280;26166;48.264;11.436;2023-04-27T05:21:13;96344.16;;;11.56;53.28
10476;BME280;26166;48.264;11.436;2023-04-27T05:24:14;96341.66;;;11.54;53.24
10476;BME280;26166;48.264;11.436;2023-04-27T05:27:14;96331.16;;;11.54;53.23
10476;BME280;26166;48.264;11.436;2023-04-27T05:30:14;96340.22;;;11.52;53.53
10476;BME280;26166;48.264;11.436;2023-04-27T05:33:14;96345.47;;;11.52;53.64
10476;BME280;26166;48.264;11.436;2023-04-27T05:36:15;96348.09;;;11.52;53.77
10476;BME280;26166;48.264;11.436;2023-04-27T05:39:15;96351.72;;;11.51;53.66
10476;BME280;26166;48.264;11.436;2023-04-27T05:42:15;96355.00;;;11.53;53.96
10476;BME280;26166;48.264;11.436;2023-04-27T05:45:15;96369.47;;;11.49;53.68
10476;BME280;26166;48.264;11.436;2023-04-27T05:48:16;96367.56;;;11.34;54.10
10476;BME280;26166;48.264;11.436;2023-04-27T05:51:16;96365.06;;;11.33;54.12
10476;BME280;26166;48.264;11.436;2023-04-27T05:54:16;96368.88;;;11.30;54.34
10476;BME280;26166;48.264;11.436;2023-04-27T05:57:16;96358.38;;;11.30;54.76
10476;BME280;26166;48.264;11.436;2023-04-27T06:00:16;96363.28;;;11.33;54.45
10476;BME280;26166;48.264;11.436;2023-04-27T06:03:18;96363.94;;;11.35;54.60
10476;BME280;26166;48.264;11.436;2023-04-27T06:06:18;96364.75;;;11.36;54.74
10476;BME280;26166;48.264;11.436;2023-04-27T06:09:19;96360.31;;;11.36;54.33
10476;BME280;26166;48.264;11.436;2023-04-27T06:12:19;96353.72;;;11.41;54.35
10476;BME280;26166;48.264;11.436;2023-04-27T06:15:19;96359.81;;;11.41;54.46
10476;BME280;26166;48.264;11.436;2023-04-27T06:18:19;96364.25;;;11.41;54.27
10476;BME280;26166;48.264;11.436;2023-04-27T06:21:20;96365.88;;;11.42;54.59
10476;BME280;26166;48.264;11.436;2023-04-27T06:24:20;96366.88;;;11.41;54.54
10476;BME280;26166;48.264;11.436;2023-04-27T06:27:21;96371.00;;;11.43;54.31
10476;BME280;26166;48.264;11.436;2023-04-27T06:30:21;96375.59;;;11.41;54.27
10476;BME280;26166;48.264;11.436;2023-04-27T06:33:22;96382.66;;;11.41;53.89
10476;BME280;26166;48.264;11.436;2023-04-27T06:36:22;96375.44;;;11.43;53.83
10476;BME280;26166;48.264;11.436;2023-04-27T06:39:23;96377.88;;;11.44;53.71
10476;BME280;26166;48.264;11.436;2023-04-27T06:42:24;96378.69;;;11.45;53.13
10476;BME280;26166;48.264;11.436;2023-04-27T06:45:24;96379.53;;;11.45;53.02
10476;BME280;26166;48.264;11.436;2023-04-27T06:48:24;96387.25;;;11.47;53.21
10476;BME280;26166;48.264;11.436;2023-04-27T06:51:24;96382.97;;;11.46;52.51
10476;BME280;26166;48.264;11.436;2023-04-27T06:54:25;96374.09;;;11.47;52.58
10476;BME280;26166;48.264;11.436;2023-04-27T06:57:25;96373.13;;;11.48;52.58
10476;BME280;26166;48.264;11.436;2023-04-27T07:00:26;96376.75;;;11.47;52.65
10476;BME280;26166;48.264;11.436;2023-04-27T07:03:27;96377.38;;;11.49;52.42
10476;BME280;26166;48.264;11.436;2023-04-27T07:06:27;96377.19;;;11.50;52.34
10476;BME280;26166;48.264;11.436;2023-04-27T07:09:27;96384.94;;;11.52;52.34
10476;BME280;26166;48.264;11.436;2023-04-27T07:12:28;96378.00;;;11.51;52.15
10476;BME280;26166;48.264;11.436;2023-04-27T07:15:31;96383.28;;;11.51;52.10
10476;BME280;26166;48.264;11.436;2023-04-27T07:18:32;96386.75;;;11.51;52.24
10476;BME280;26166;48.264;11.436;2023-04-27T07:21:32;96390.19;;;11.52;52.51
10476;BME280;26166;48.264;11.436;2023-04-27T07:24:32;96389.19;;;11.53;52.16
10476;BME280;26166;48.264;11.436;2023-04-27T07:27:32;96387.38;;;11.53;52.21
10476;BME280;26166;48.264;11.436;2023-04-27T07:30:34;96382.94;;;11.54;51.95
10476;BME280;26166;48.264;11.436;2023-04-27T07:33:35;96387.38;;;11.53;51.78
10476;BME280;26166;48.264;11.436;2023-04-27T07:36:36;96386.56;;;11.53;51.79
10476;BME280;26166;48.264;11.436;2023-04-27T07:39:37;96380.31;;;11.54;52.14
10476;BME280;26166;48.264;11.436;2023-04-27T07:42:37;96375.72;;;11.56;52.10
10476;BME280;26166;48.264;11.436;2023-04-27T07:45:39;96378.34;;;11.56;52.10
10476;BME280;26166;48.264;11.436;2023-04-27T07:48:40;96378.00;;;11.59;51.79
10476;BME280;26166;48.264;11.436;2023-04-27T07:51:41;96377.03;;;11.60;52.17
10476;BME280;26166;48.264;11.436;2023-04-27T07:54:41;96376.03;;;11.61;52.15
10476;BME280;26166;48.264;11.436;2023-04-27T07:57:42;96376.66;;;11.63;52.27
10476;BME280;26166;48.264;11.436;2023-04-27T08:00:42;96380.78;;;11.66;52.22
10476;BME280;26166;48.264;11.436;2023-04-27T08:03:42;96388.50;;;11.67;51.98
10476;BME280;26166;48.264;11.436;2023-04-27T08:06:42;96395.38;;;11.68;52.34
10476;BME280;26166;48.264;11.436;2023-04-27T08:09:42;96386.16;;;11.72;52.11
10476;BME280;26166;48.264;11.436;2023-04-27T08:12:43;96394.41;;;11.69;52.36
10476;BME280;26166;48.264;11.436;2023-04-27T08:15:43;96394.25;;;11.71;52.07
10476;BME280;26166;48.264;11.436;2023-04-27T08:18:43;96389.63;;;11.73;52.03
10476;BME280;26166;48.264;11.436;2023-04-27T08:21:43;96396.34;;;11.75;52.12
10476;BME280;26166;48.264;11.436;2023-04-27T08:24:43;96394.22;;;11.79;51.77
10476;BME280;26166;48.264;11.436;2023-04-27T08:27:44;96398.47;;;11.80;51.97
10476;BME280;26166;48.264;11.436;2023-04-27T08:30:44;96394.84;;;11.81;51.83
10476;BME280;26166;48.264;11.436;2023-04-27T08:33:45;96392.41;;;11.79;51.92
10476;BME280;26166;48.264;11.436;2023-04-27T08:36:45;96393.03;;;11.81;52.22
10476;BME280;26166;48.264;11.436;2023-04-27T08:39:46;96396.38;;;11.83;51.88
10476;BME280;26166;48.264;11.436;2023-04-27T08:42:54;96395.84;;;11.88;51.75
10476;BME280;26166;48.264;11.436;2023-04-27T08:45:55;96384.50;;;11.88;52.08
10476;BME280;26166;48.264;11.436;2023-04-27T08:48:55;96381.50;;;11.91;51.39
10476;BME280;26166;48.264;11.436;2023-04-27T08:51:55;96389.41;;;11.91;51.44
10476;BME280;26166;48.264;11.436;2023-04-27T08:54:56;96382.50;;;11.90;51.40
10476;BME280;26166;48.264;11.436;2023-04-27T08:57:56;96385.00;;;11.91;51.09
10476;BME280;26166;48.264;11.436;2023-04-27T09:00:57;96377.09;;;11.91;50.54
10476;BME280;26166;48.264;11.436;2023-04-27T09:03:58;96375.09;;;11.93;50.50
10476;BME280;26166;48.264;11.436;2023-04-27T09:07:08;96372.94;;;11.97;49.93
10476;BME280;26166;48.264;11.436;2023-04-27T09:10:08;96378.22;;;11.97;50.61
10476;BME280;26166;48.264;11.436;2023-04-27T09:13:09;96378.34;;;11.95;50.44
10476;BME280;26166;48.264;11.436;2023-04-27T09:16:09;96374.91;;;11.95;50.41
10476;BME280;26166;48.264;11.436;2023-04-27T09:19:10;96371.31;;;11.96;50.49
10476;BME280;26166;48.264;11.436;2023-04-27T09:22:10;96369.78;;;12.01;50.34
10476;BME280;26166;48.264;11.436;2023-04-27T09:25:28;96368.31;;;11.99;50.31
10476;BME280;26166;48.264;11.436;2023-04-27T09:28:29;96369.59;;;12.03;50.37
10476;BME280;26166;48.264;11.436;2023-04-27T09:31:31;96365.63;;;12.07;50.23
10476;BME280;26166;48.264;11.436;2023-04-27T09:34:38;96357.25;;;12.03;50.64
10476;BME280;26166;48.264;11.436;2023-04-27T09:37:40;96365.00;;;12.05;50.70
10476;BME280;26166;48.264;11.436;2023-04-27T09:40:40;96355.09;;;12.07;50.56
10476;BME280;26166;48.264;11.436;2023-04-27T09:43:42;96364.81;;;12.06;50.57
10476;BME280;26166;48.264;11.436;2023-04-27T09:46:43;96353.28;;;12.07;50.37
10476;BME280;26166;48.264;11.436;2023-04-27T09:49:44;96352.28;;;12.08;50.43
10476;BME280;26166;48.264;11.436;2023-04-27T09:52:45;96358.41;;;12.09;50.59
10476;BME280;26166;48.264;11.436;2023-04-27T09:55:58;96352.94;;;12.10;50.14
10476;BME280;26166;48.264;11.436;2023-04-27T10:02:20;96355.41;;;12.12;50.58
10476;BME280;26166;48.264;11.436;2023-04-27T10:05:34;96350.13;;;12.12;50.65
10476;BME280;26166;48.264;11.436;2023-04-27T10:08:37;96344.53;;;12.15;50.41
10476;BME280;26166;48.264;11.436;2023-04-27T10:11:38;96333.66;;;12.18;49.69
10476;BME280;26166;48.264;11.436;2023-04-27T10:17:50;96333.94;;;12.23;49.57
10476;BME280;26166;48.264;11.436;2023-04-27T10:20:52;96330.66;;;12.21;49.51
10476;BME280;26166;48.264;11.436;2023-04-27T10:23:52;96331.84;;;12.19;49.65
10476;BME280;26166;48.264;11.436;2023-04-27T10:26:58;96328.41;;;12.18;49.58
10476;BME280;26166;48.264;11.436;2023-04-27T10:30:06;96333.00;;;12.16;49.72
10476;BME280;26166;48.264;11.436;2023-04-27T10:33:08;96333.00;;;12.16;49.68
10476;BME280;26166;48.264;11.436;2023-04-27T10:36:13;96328.53;;;12.17;50.11
10476;BME280;26166;48.264;11.436;2023-04-27T10:39:16;96321.47;;;12.17;49.62
10476;BME280;26166;48.264;11.436;2023-04-27T10:42:26;96324.75;;;12.19;50.01
10476;BME280;26166;48.264;11.436;2023-04-27T10:45:29;96324.09;;;12.17;49.87
10476;BME280;26166;48.264;11.436;2023-04-27T10:48:29;96327.56;;;12.18;50.35
10476;BME280;26166;48.264;11.436;2023-04-27T10:51:29;96328.41;;;12.18;49.75
10476;BME280;26166;48.264;11.436;2023-04-27T10:54:32;96325.75;;;12.18;50.21
10476;BME280;26166;48.264;11.436;2023-04-27T10:57:32;96318.00;;;12.17;50.04
10476;BME280;26166;48.264;11.436;2023-04-27T11:00:33;96322.47;;;12.16;50.12
10476;BME280;26166;48.264;11.436;2023-04-27T11:03:34;96319.84;;;12.16;50.29
10476;BME280;26166;48.264;11.436;2023-04-27T11:06:40;96317.19;;;12.16;50.31
10476;BME280;26166;48.264;11.436;2023-04-27T11:09:41;96321.47;;;12.17;50.20
10476;BME280;26166;48.264;11.436;2023-04-27T11:12:41;96323.94;;;12.19;50.18
10476;BME280;26166;48.264;11.436;2023-04-27T11:15:54;96324.75;;;12.19;50.43
10476;BME280;26166;48.264;11.436;2023-04-27T11:18:55;96318.50;;;12.20;50.55
10476;BME280;26166;48.264;11.436;2023-04-27T11:22:04;96319.50;;;12.19;50.24
10476;BME280;26166;48.264;11.436;2023-04-27T11:25:05;96319.16;;;12.22;50.43
10476;BME280;26166;48.264;11.436;2023-04-27T11:28:15;96315.84;;;12.20;49.77
10476;BME280;26166;48.264;11.436;2023-04-27T11:31:15;96322.75;;;12.21;49.65
10476;BME280;26166;48.264;11.436;2023-04-27T11:34:16;96337.50;;;12.30;49.59
10476;BME280;26166;48.264;11.436;2023-04-27T11:37:23;96328.38;;;12.41;49.93
10476;BME280;26166;48.264;11.436;2023-04-27T11:40:24;96322.69;;;12.52;49.35
10476;BME280;26166;48.264;11.436;2023-04-27T11:43:25;96316.53;;;12.60;49.01
10476;BME280;26166;48.264;11.436;2023-04-27T11:46:25;96330.00;;;12.65;49.24
10476;BME280;26166;48.264;11.436;2023-04-27T11:49:26;96328.66;;;12.69;49.10
10476;BME280;26166;48.264;11.436;2023-04-27T11:52:27;96321.22;;;12.73;49.29
10476;BME280;26166;48.264;11.436;2023-04-27T11:55:27;96323.31;;;12.77;48.80
10476;BME280;26166;48.264;11.436;2023-04-27T11:58:27;96324.78;;;12.80;48.78
10476;BME280;26166;48.264;11.436;2023-04-27T12:01:32;96321.34;;;12.79;48.77
10476;BME280;26166;48.264;11.436;2023-04-27T12:04:32;96324.78;;;12.80;49.08
10476;BME280;26166;48.264;11.436;2023-04-27T12:07:33;96312.56;;;12.79;49.13
10476;BME280;26166;48.264;11.436;2023-04-27T12:10:33;96321.34;;;12.79;49.12
10476;BME280;26166;48.264;11.436;2023-04-27T12:13:33;96325.75;;;12.79;48.97
10476;BME280;26166;48.264;11.436;2023-04-27T12:16:33;96320.69;;;12.77;48.89
10476;BME280;26166;48.264;11.436;2023-04-27T12:19:33;96318.03;;;12.77;49.27
10476;BME280;26166;48.264;11.436;2023-04-27T12:22:35;96318.22;;;12.76;49.29
10476;BME280;26166;48.264;11.436;2023-04-27T12:25:36;96318.38;;;12.74;49.43
10476;BME280;26166;48.264;11.436;2023-04-27T12:28:36;96320.06;;;12.75;49.37
10476;BME280;26166;48.264;11.436;2023-04-27T12:31:36;96320.06;;;12.75;49.43
10476;BME280;26166;48.264;11.436;2023-04-27T12:34:37;96317.56;;;12.74;49.47
10476;BME280;26166;48.264;11.436;2023-04-27T12:37:40;96316.56;;;12.75;49.67
10476;BME280;26166;48.264;11.436;2023-04-27T12:40:41;96318.38;;;12.74;49.56
10476;BME280;26166;48.264;11.436;2023-04-27T12:43:41;96315.75;;;12.74;49.92
10476;BME280;26166;48.264;11.436;2023-04-27T12:46:42;96318.56;;;12.73;49.52
10476;BME280;26166;48.264;11.436;2023-04-27T12:49:43;96312.50;;;12.72;49.71
10476;BME280;26166;48.264;11.436;2023-04-27T12:52:43;96306.56;;;12.70;49.66
10476;BME280;26166;48.264;11.436;2023-04-27T12:55:44;96311.03;;;12.70;49.66
10476;BME280;26166;48.264;11.436;2023-04-27T12:58:45;96306.56;;;12.70;49.85
10476;BME280;26166;48.264;11.436;2023-04-27T13:01:46;96304.94;;;12.69;49.83
10476;BME280;26166;48.264;11.436;2023-04-27T13:04:46;96308.56;;;12.68;50.05
10476;BME280;26166;48.264;11.436;2023-04-27T13:07:46;96301.47;;;12.69;50.02
10476;BME280;26166;48.264;11.436;2023-04-27T13:10:47;96299.66;;;12.69;50.06
10476;BME280;26166;48.264;11.436;2023-04-27T13:13:47;96298.03;;;12.68;50.04
10476;BME280;26166;48.264;11.436;2023-04-27T13:16:47;96303.31;;;12.68;50.02
10476;BME280;26166;48.264;11.436;2023-04-27T13:19:47;96303.31;;;12.68;50.07
10476;BME280;26166;48.264;11.436;2023-04-27T13:22:47;96303.31;;;12.68;50.39
10476;BME280;26166;48.264;11.436;2023-04-27T13:25:48;96301.66;;;12.67;50.06
10476;BME280;26166;48.264;11.436;2023-04-27T13:28:48;96305.13;;;12.68;50.17
10476;BME280;26166;48.264;11.436;2023-04-27T13:31:49;96299.03;;;12.67;50.23
10476;BME280;26166;48.264;11.436;2023-04-27T13:34:49;96285.03;;;12.67;50.22
10476;BME280;26166;48.264;11.436;2023-04-27T13:37:50;96300.84;;;12.67;50.17
10476;BME280;26166;48.264;11.436;2023-04-27T13:40:52;96300.84;;;12.67;50.19
10476;BME280;26166;48.264;11.436;2023-04-27T13:43:53;96293.91;;;12.66;50.11
10476;BME280;26166;48.264;11.436;2023-04-27T13:46:53;96286.00;;;12.66;50.22
10476;BME280;26166;48.264;11.436;2023-04-27T13:49:53;96295.75;;;12.65;50.51
10476;BME280;26166;48.264;11.436;2023-04-27T13:52:53;96285.19;;;12.65;50.51
10476;BME280;26166;48.264;11.436;2023-04-27T13:55:54;96282.56;;;12.65;50.43
10476;BME280;26166;48.264;11.436;2023-04-27T13:58:54;96276.47;;;12.65;50.43
10476;BME280;26166;48.264;11.436;2023-04-27T14:01:55;96278.50;;;12.62;50.51
10476;BME280;26166;48.264;11.436;2023-04-27T14:04:55;96276.00;;;12.61;50.67
10476;BME280;26166;48.264;11.436;2023-04-27T14:07:55;96284.09;;;12.59;50.48
10476;BME280;26166;48.264;11.436;2023-04-27T14:10:56;96281.47;;;12.59;50.80
10476;BME280;26166;48.264;11.436;2023-04-27T14:13:57;96270.75;;;12.61;50.74
10476;BME280;26166;48.264;11.436;2023-04-27T14:16:57;96270.75;;;12.61;50.49
10476;BME280;26166;48.264;11.436;2023-04-27T14:19:57;96267.75;;;12.64;50.55
10476;BME280;26166;48.264;11.436;2023-04-27T14:22:57;96265.13;;;12.64;50.46
10476;BME280;26166;48.264;11.436;2023-04-27T14:25:58;96270.38;;;12.64;50.69
10476;BME280;26166;48.264;11.436;2023-04-27T14:28:58;96267.56;;;12.66;50.52
10476;BME280;26166;48.264;11.436;2023-04-27T14:31:58;96261.47;;;12.65;50.46
10476;BME280;26166;48.264;11.436;2023-04-27T14:34:58;96266.75;;;12.65;50.60
10476;BME280;26166;48.264;11.436;2023-04-27T14:37:58;96259.84;;;12.64;50.78
10476;BME280;26166;48.264;11.436;2023-04-27T14:41:01;96256.59;;;12.62;50.83
10476;BME280;26166;48.264;11.436;2023-04-27T14:44:01;96263.66;;;12.61;50.82
10476;BME280;26166;48.264;11.436;2023-04-27T14:47:02;96259.38;;;12.60;50.72
10476;BME280;26166;48.264;11.436;2023-04-27T14:50:02;96264.84;;;12.59;50.73
10476;BME280;26166;48.264;11.436;2023-04-27T14:53:02;96259.38;;;12.60;50.65
10476;BME280;26166;48.264;11.436;2023-04-27T14:56:03;96268.09;;;12.61;50.64
10476;BME280;26166;48.264;11.436;2023-04-27T14:59:03;96258.22;;;12.63;50.91
10476;BME280;26166;48.264;11.436;2023-04-27T15:02:03;96256.41;;;12.63;50.80
10476;BME280;26166;48.264;11.436;2023-04-27T15:05:04;96250.13;;;12.65;50.93
10476;BME280;26166;48.264;11.436;2023-04-27T15:08:04;96257.50;;;12.69;50.73
10476;BME280;26166;48.264;11.436;2023-04-27T15:11:04;96259.78;;;12.72;50.30
10476;BME280;26166;48.264;11.436;2023-04-27T15:14:05;96258.78;;;12.73;50.80
10476;BME280;26166;48.264;11.436;2023-04-27T15:17:06;96256.31;;;12.72;50.57
10476;BME280;26166;48.264;11.436;2023-04-27T15:20:06;96255.50;;;12.71;50.76
10476;BME280;26166;48.264;11.436;2023-04-27T15:23:07;96250.59;;;12.68;50.75
10476;BME280;26166;48.264;11.436;2023-04-27T15:26:07;96248.97;;;12.67;50.64
10476;BME280;26166;48.264;11.436;2023-04-27T15:29:07;96250.78;;;12.67;50.94
10476;BME280;26166;48.264;11.436;2023-04-27T15:32:07;96244.84;;;12.65;50.74
10476;BME280;26166;48.264;11.436;2023-04-27T15:35:08;96245.03;;;12.63;51.01
10476;BME280;26166;48.264;11.436;2023-04-27T15:38:09;96247.03;;;12.61;51.22
10476;BME280;26166;48.264;11.436;2023-04-27T15:41:10;96247.69;;;12.63;51.17
10476;BME280;26166;48.264;11.436;2023-04-27T15:44:11;96248.97;;;12.67;51.01
10476;BME280;26166;48.264;11.436;2023-04-27T15:47:11;96242.97;;;12.73;50.93
10476;BME280;26166;48.264;11.436;2023-04-27T15:50:12;96247.97;;;12.83;50.70
10476;BME280;26166;48.264;11.436;2023-04-27T15:53:12;96257.25;;;12.94;50.68